Time;durP1;ratioP1;P1;durP2;ratioP2;P2;SDS_P1;SDS_P2;PMS_P1;PMS_P2;Temp;Humidity;BMP_temperature;BMP_pressure;BME280_temperature;BME280_humidity;BME280_pressure;Samples;Min_cycle;Max_cycle;Signal;HPM_P1;HPM_P2
2023/11/10 00:03:57;;;;;;;10.70;7.90;;;;;;;10.68;90.99;99184.90;177211;1259;45974;-86
2023/11/10 00:08:01;;;;;;;8.20;7.40;;;;;;;10.67;91.25;99182.38;177372;1258;58248;-86
2023/11/10 00:12:05;;;;;;;6.80;6.10;;;;;;;10.63;91.51;99181.83;177310;1260;45966;-86
2023/11/10 00:16:08;;;;;;;7.30;6.60;;;;;;;10.68;91.49;99181.39;177242;1259;46039;-86
2023/11/10 00:20:12;;;;;;;9.80;7.90;;;;;;;10.73;91.47;99179.84;177440;1258;46093;-85
2023/11/10 00:24:18;;;;;;;8.30;7.50;;;;;;;10.75;91.62;99179.11;177403;1257;46033;-86
2023/11/10 00:28:22;;;;;;;8.20;7.10;;;;;;;10.71;91.73;99161.54;177103;1258;58338;-86
2023/11/10 00:32:26;;;;;;;10.90;7.50;;;;;;;10.72;91.72;99151.22;177069;1259;46058;-86
2023/11/10 00:36:29;;;;;;;10.40;7.90;;;;;;;10.67;92.45;99140.19;177172;1260;46105;-86
2023/11/10 00:40:32;;;;;;;11.60;9.90;;;;;;;10.65;92.24;99131.69;177063;1259;46221;-85
2023/11/10 00:44:36;;;;;;;7.40;6.50;;;;;;;10.62;92.69;99128.95;177133;1258;46009;-86
2023/11/10 00:48:40;;;;;;;9.00;7.10;;;;;;;10.61;92.55;99118.04;177178;1258;59594;-86
2023/11/10 00:52:43;;;;;;;9.60;6.60;;;;;;;10.67;92.28;99126.87;177063;1261;46471;-86
2023/11/10 00:56:47;;;;;;;8.60;6.60;;;;;;;10.68;91.89;99132.55;177360;1263;46164;-85
2023/11/10 01:00:50;;;;;;;7.70;6.30;;;;;;;10.67;92.08;99132.67;177428;1259;46592;-85
2023/11/10 01:04:55;;;;;;;7.80;5.70;;;;;;;10.69;92.30;99128.83;177385;1258;46109;-85
2023/11/10 01:08:58;;;;;;;7.20;5.50;;;;;;;10.70;92.13;99118.61;177247;1259;59620;-84
2023/11/10 01:13:01;;;;;;;7.90;5.10;;;;;;;10.69;91.40;99105.56;177571;1259;46120;-85
2023/11/10 01:17:04;;;;;;;7.50;4.40;;;;;;;10.71;91.02;99095.20;177479;1258;46412;-86
2023/11/10 01:21:08;;;;;;;5.70;3.70;;;;;;;10.74;90.25;99088.91;177163;1259;45953;-86
2023/11/10 01:25:13;;;;;;;5.30;3.80;;;;;;;10.78;90.27;99091.02;177168;1259;46078;-86
2023/11/10 01:29:17;;;;;;;5.60;3.10;;;;;;;10.79;90.09;99094.85;177326;1259;59553;-86
2023/11/10 01:33:20;;;;;;;5.50;4.80;;;;;;;10.81;89.82;99100.63;177024;1259;46551;-86
2023/11/10 01:37:24;;;;;;;9.30;4.40;;;;;;;10.81;89.56;99094.74;176891;1259;46148;-86
2023/11/10 01:41:27;;;;;;;4.30;3.40;;;;;;;10.89;89.48;99086.73;177342;1259;45979;-86
2023/11/10 01:45:30;;;;;;;6.50;3.60;;;;;;;10.89;89.52;99073.70;177378;1259;44291;-87
2023/11/10 01:49:34;;;;;;;3.30;2.40;;;;;;;10.87;89.31;99074.66;177399;1259;58224;-86
2023/11/10 01:53:38;;;;;;;4.20;3.10;;;;;;;10.86;88.88;99065.37;177579;1258;45969;-85
2023/11/10 01:57:41;;;;;;;3.70;3.40;;;;;;;10.89;88.91;99066.33;177617;1259;46007;-85
2023/11/10 02:01:47;;;;;;;5.10;3.30;;;;;;;10.93;89.36;99069.40;177196;1258;45908;-86
2023/11/10 02:05:51;;;;;;;3.50;3.20;;;;;;;10.94;89.34;99058.56;177235;1257;46122;-86
2023/11/10 02:09:54;;;;;;;5.10;3.20;;;;;;;10.94;89.59;99051.64;176955;1259;58235;-85
2023/11/10 02:13:59;;;;;;;7.90;4.60;;;;;;;10.91;89.95;99047.60;177398;1259;46385;-85
2023/11/10 02:18:05;;;;;;;3.30;2.90;;;;;;;10.87;89.89;99057.76;177324;1258;45949;-86
2023/11/10 02:22:08;;;;;;;5.10;3.90;;;;;;;10.88;90.04;99060.59;177423;1259;45961;-85
2023/11/10 02:26:13;;;;;;;4.00;3.60;;;;;;;10.88;90.07;99057.83;177317;1258;45976;-85
2023/11/10 02:30:17;;;;;;;5.70;4.00;;;;;;;10.86;90.31;99052.05;177177;1258;60060;-85
2023/11/10 02:34:20;;;;;;;6.40;4.10;;;;;;;10.84;90.48;99049.10;177239;1258;45997;-85
2023/11/10 02:38:24;;;;;;;4.90;4.40;;;;;;;10.79;90.67;99051.92;177113;1258;46053;-85
2023/11/10 02:42:27;;;;;;;5.20;4.20;;;;;;;10.81;91.05;99047.30;177287;1259;46146;-85
2023/11/10 02:46:31;;;;;;;7.00;4.30;;;;;;;10.77;91.30;99046.77;177172;1261;45985;-85
2023/11/10 02:50:34;;;;;;;10.30;5.00;;;;;;;10.74;91.59;99043.23;177075;1258;58232;-86
2023/11/10 02:54:38;;;;;;;6.20;3.80;;;;;;;10.68;92.06;99028.70;176973;1257;46000;-86
2023/11/10 02:58:41;;;;;;;6.40;4.80;;;;;;;10.60;92.90;99025.23;177339;1259;46152;-86
2023/11/10 03:02:45;;;;;;;6.60;5.40;;;;;;;10.58;93.00;99019.48;177273;1258;46040;-85
2023/11/10 03:06:49;;;;;;;5.00;4.50;;;;;;;10.58;92.73;99016.03;177303;1259;46132;-85
2023/11/10 03:10:53;;;;;;;6.60;5.00;;;;;;;10.57;92.74;99018.46;177497;1258;59883;-87
2023/11/10 03:14:57;;;;;;;5.30;4.30;;;;;;;10.54;92.87;99020.70;177429;1259;46085;-86
2023/11/10 03:19:00;;;;;;;5.70;4.60;;;;;;;10.55;92.84;99018.48;177583;1261;45956;-86
2023/11/10 03:23:04;;;;;;;6.10;5.10;;;;;;;10.53;92.91;99020.16;177239;1259;46148;-85
2023/11/10 03:27:08;;;;;;;7.30;4.60;;;;;;;10.50;92.94;99023.42;177212;1259;46202;-86
2023/11/10 03:31:12;;;;;;;5.80;5.00;;;;;;;10.53;92.80;99016.10;177245;1259;59261;-88
2023/11/10 03:35:16;;;;;;;7.00;5.80;;;;;;;10.52;92.96;99016.83;177225;1258;46061;-86
2023/11/10 03:39:20;;;;;;;5.20;4.50;;;;;;;10.51;92.97;99009.13;177264;1257;46035;-86
2023/11/10 03:43:24;;;;;;;5.70;5.20;;;;;;;10.54;92.86;99003.58;177471;1262;46200;-85
2023/11/10 03:47:28;;;;;;;6.70;5.90;;;;;;;10.52;93.18;99008.35;177633;1258;46417;-86
2023/11/10 03:51:32;;;;;;;5.80;5.20;;;;;;;10.54;93.46;99004.28;177089;1259;59801;-86
2023/11/10 03:55:35;;;;;;;7.60;5.60;;;;;;;10.52;93.50;98997.59;177142;1259;47322;-86
2023/11/10 03:59:39;;;;;;;15.30;5.20;;;;;;;10.54;93.48;98989.55;177484;1257;46051;-86
2023/11/10 04:03:43;;;;;;;6.60;5.30;;;;;;;10.54;93.44;98995.77;177782;1259;45966;-86
2023/11/10 04:07:47;;;;;;;5.60;4.60;;;;;;;10.53;93.65;98984.10;178379;1262;45965;-86
2023/11/10 04:11:51;;;;;;;6.20;5.50;;;;;;;10.51;93.84;98976.05;178461;1260;59545;-85
2023/11/10 04:15:56;;;;;;;4.40;4.00;;;;;;;10.48;94.53;98973.44;177637;1259;46023;-86
2023/11/10 04:20:00;;;;;;;8.50;5.50;;;;;;;10.44;94.84;98966.23;178211;1259;46127;-87
2023/11/10 04:24:06;;;;;;;7.00;5.90;;;;;;;10.41;95.39;98970.96;177501;1260;46031;-88
2023/11/10 04:28:11;;;;;;;7.20;6.10;;;;;;;10.41;95.69;98968.52;178897;1258;46114;-87
2023/11/10 04:32:15;;;;;;;7.10;5.20;;;;;;;10.38;96.06;98965.45;178379;1259;59665;-87
2023/11/10 04:36:19;;;;;;;7.10;4.80;;;;;;;10.37;96.15;98960.74;177798;1258;46111;-87
2023/11/10 04:40:22;;;;;;;9.10;5.50;;;;;;;10.40;95.80;98965.98;177633;1258;46014;-87
2023/11/10 04:44:26;;;;;;;8.80;6.60;;;;;;;10.43;95.76;98961.55;177855;1259;46186;-87
2023/11/10 04:48:30;;;;;;;7.00;5.60;;;;;;;10.46;95.38;98959.34;177888;1263;46085;-86
2023/11/10 04:52:34;;;;;;;8.40;5.90;;;;;;;10.53;94.98;98968.94;177664;1259;58682;-87
2023/11/10 04:56:44;;;;;;;5.90;4.80;;;;;;;10.52;94.48;98981.73;178597;1257;46106;-86
2023/11/10 05:00:49;;;;;;;7.90;5.80;;;;;;;10.52;94.81;98975.92;177801;1259;44120;-86
2023/11/10 05:04:53;;;;;;;8.30;6.40;;;;;;;10.36;96.10;98973.27;177829;1259;46189;-86
2023/11/10 05:09:00;;;;;;;6.90;5.80;;;;;;;10.22;96.29;98972.19;177518;1260;45994;-87
2023/11/10 05:13:04;;;;;;;8.40;7.20;;;;;;;10.07;97.64;98961.95;178144;1258;59453;-86
2023/11/10 05:17:08;;;;;;;7.90;5.80;;;;;;;9.99;98.10;98954.98;178183;1258;46085;-87
2023/11/10 05:21:13;;;;;;;7.50;6.10;;;;;;;9.89;98.01;98955.25;177796;1258;46118;-86
2023/11/10 05:25:18;;;;;;;7.40;5.70;;;;;;;9.86;96.83;98959.41;177530;1260;46109;-86
2023/11/10 05:29:21;;;;;;;5.40;4.90;;;;;;;9.75;98.02;98955.59;177976;1260;46139;-88
2023/11/10 05:33:24;;;;;;;9.60;7.40;;;;;;;9.58;99.68;98955.14;177516;1258;58229;-87
2023/11/10 05:37:29;;;;;;;7.10;6.40;;;;;;;9.48;99.45;98954.38;178318;1260;46282;-87
2023/11/10 05:41:32;;;;;;;8.50;6.30;;;;;;;9.43;98.94;98976.58;177376;1263;46018;-88
2023/11/10 05:45:36;;;;;;;30.50;27.90;;;;;;;9.47;98.65;98983.84;177895;1259;45268;-87
2023/11/10 05:49:40;;;;;;;9.20;8.10;;;;;;;9.45;97.68;98988.64;177913;1259;46075;-87
2023/11/10 05:53:44;;;;;;;10.20;8.80;;;;;;;9.36;97.69;98981.68;177548;1258;59515;-87
2023/11/10 05:57:48;;;;;;;7.90;7.10;;;;;;;9.32;98.68;98985.15;178172;1259;46129;-87
2023/11/10 06:01:51;;;;;;;11.20;7.20;;;;;;;9.31;98.94;98984.48;177792;1259;45995;-87
2023/11/10 06:05:55;;;;;;;8.80;7.80;;;;;;;9.32;98.96;98985.11;178695;1258;46147;-88
2023/11/10 06:09:59;;;;;;;8.20;7.40;;;;;;;9.32;99.20;98984.73;177357;1259;45267;-87
2023/11/10 06:14:05;;;;;;;12.50;10.50;;;;;;;9.28;99.73;98987.05;177931;1259;59053;-86
2023/11/10 06:18:08;;;;;;;11.70;9.50;;;;;;;9.20;100.00;98977.88;177709;1257;55150;-86
2023/11/10 06:22:12;;;;;;;9.70;8.00;;;;;;;9.14;100.00;98980.92;177312;1258;46109;-87
2023/11/10 06:26:17;;;;;;;9.50;8.10;;;;;;;9.05;100.00;98980.92;177247;1259;253055;-88
2023/11/10 06:30:20;;;;;;;13.80;8.80;;;;;;;8.99;100.00;98982.94;178015;1260;45902;-87
2023/11/10 06:34:24;;;;;;;11.30;8.80;;;;;;;8.94;100.00;98983.52;178450;1259;59371;-87
2023/11/10 06:38:29;;;;;;;14.10;9.80;;;;;;;8.92;100.00;98978.80;178017;1259;46180;-88
2023/11/10 06:42:35;;;;;;;10.80;7.80;;;;;;;9.05;100.00;98976.65;177957;1259;46049;-87
2023/11/10 06:46:39;;;;;;;11.50;9.60;;;;;;;9.22;100.00;98974.01;176948;1259;46240;-88
2023/11/10 06:50:43;;;;;;;12.50;8.50;;;;;;;9.47;99.77;98972.84;177679;1259;46103;-88
2023/11/10 06:54:47;;;;;;;10.10;8.60;;;;;;;9.67;99.21;98978.73;178882;1259;59226;-87
2023/11/10 06:58:50;;;;;;;10.70;7.60;;;;;;;9.77;98.34;98985.13;177212;1259;46172;-87
2023/11/10 07:02:56;;;;;;;11.70;8.60;;;;;;;9.85;97.80;98989.67;177480;1259;45999;-87
2023/11/10 07:07:01;;;;;;;8.90;7.30;;;;;;;9.92;97.32;98989.16;178190;1259;44033;-88
2023/11/10 07:11:07;;;;;;;12.20;9.10;;;;;;;9.88;97.67;98979.41;177967;1259;46102;-87
2023/11/10 07:15:10;;;;;;;11.70;9.60;;;;;;;9.87;97.93;98978.65;178023;1258;59513;-87
2023/11/10 07:19:14;;;;;;;11.40;10.10;;;;;;;9.90;97.58;98985.43;178301;1259;46135;-88
2023/11/10 07:23:17;;;;;;;8.80;7.90;;;;;;;9.93;97.66;98984.28;178479;1259;45999;-88
2023/11/10 07:27:20;;;;;;;10.10;8.70;;;;;;;10.03;96.96;98983.84;177282;1259;46227;-87
2023/11/10 07:31:24;;;;;;;10.60;8.10;;;;;;;10.18;96.38;98985.09;177619;1258;45995;-88
2023/11/10 07:35:28;;;;;;;11.80;7.60;;;;;;;10.30;95.69;98984.44;177440;1259;59882;-87
2023/11/10 07:39:32;;;;;;;9.80;8.80;;;;;;;10.41;94.58;98971.39;177558;1259;47523;-87
2023/11/10 07:43:36;;;;;;;11.40;9.40;;;;;;;10.48;95.24;98961.25;177985;1262;46112;-87
2023/11/10 07:47:39;;;;;;;9.50;8.90;;;;;;;10.50;95.60;98956.80;177448;1257;45998;-87
2023/11/10 07:51:43;;;;;;;19.10;13.30;;;;;;;10.64;94.80;98956.80;177695;1259;46091;-88
2023/11/10 07:55:46;;;;;;;12.30;9.40;;;;;;;10.78;93.33;98951.48;178166;1259;58267;-88
2023/11/10 07:59:51;;;;;;;14.40;9.80;;;;;;;10.86;92.71;98954.34;177608;1262;46090;-87
2023/11/10 08:03:54;;;;;;;11.20;9.40;;;;;;;10.90;91.27;98949.53;177878;1259;46542;-88
2023/11/10 08:07:57;;;;;;;13.90;11.20;;;;;;;10.99;91.08;98950.86;177195;1263;46120;-88
2023/11/10 08:12:01;;;;;;;16.30;10.20;;;;;;;11.10;91.83;98952.02;177162;1259;45992;-87
2023/11/10 08:16:07;;;;;;;12.40;9.30;;;;;;;11.22;92.03;98953.78;177066;1259;59288;-87
2023/11/10 08:20:11;;;;;;;13.50;8.10;;;;;;;11.35;91.95;98954.91;177926;1259;46098;-88
2023/11/10 08:24:15;;;;;;;12.90;9.20;;;;;;;11.45;91.27;98959.91;177398;1259;46478;-88
2023/11/10 08:28:18;;;;;;;11.10;7.60;;;;;;;11.55;90.67;98951.41;177535;1259;46044;-87
2023/11/10 08:32:22;;;;;;;6.90;5.80;;;;;;;11.59;89.40;98947.24;178023;1260;46013;-87
2023/11/10 08:36:26;;;;;;;11.90;9.50;;;;;;;11.64;88.78;98948.15;178050;1262;58164;-87
2023/11/10 08:40:30;;;;;;;13.90;10.30;;;;;;;11.70;88.67;98950.85;177791;1259;46135;-87
2023/11/10 08:44:37;;;;;;;10.00;8.00;;;;;;;11.71;88.94;98945.45;178620;1259;46002;-88
2023/11/10 08:48:42;;;;;;;9.90;7.90;;;;;;;11.73;88.44;98949.85;177544;1263;52662;-88
2023/11/10 08:52:47;;;;;;;11.60;8.60;;;;;;;11.75;88.67;98953.02;177608;1259;46062;-87
2023/11/10 08:56:51;;;;;;;9.60;8.00;;;;;;;11.70;88.51;98958.31;177932;1261;58512;-88
2023/11/10 09:00:55;;;;;;;9.40;7.40;;;;;;;11.62;87.50;98958.24;177261;1259;46066;-87
2023/11/10 09:04:59;;;;;;;13.10;8.20;;;;;;;11.58;87.47;98966.13;178321;1259;45249;-88
2023/11/10 09:09:02;;;;;;;9.20;6.20;;;;;;;11.53;87.53;98967.52;177901;1260;46093;-87
2023/11/10 09:13:07;;;;;;;8.40;6.60;;;;;;;11.55;87.63;98966.08;178121;1259;46108;-88
2023/11/10 09:17:13;;;;;;;8.90;7.00;;;;;;;11.55;87.27;98977.50;178420;1259;58697;-87
2023/11/10 09:21:17;;;;;;;11.60;7.40;;;;;;;11.51;87.47;98977.23;177573;1259;46174;-87
2023/11/10 09:25:21;;;;;;;12.10;7.90;;;;;;;11.46;88.17;98974.58;177711;1259;46005;-87
2023/11/10 09:29:24;;;;;;;11.60;7.40;;;;;;;11.45;87.91;98972.63;178374;1259;46093;-88
2023/11/10 09:33:27;;;;;;;7.30;5.80;;;;;;;11.52;87.78;98969.41;177498;1261;46116;-88
2023/11/10 09:37:31;;;;;;;11.10;7.50;;;;;;;11.61;86.77;98961.73;177962;1259;59399;-87
2023/11/10 09:41:38;;;;;;;12.20;7.70;;;;;;;11.68;87.27;98957.14;178830;1259;46164;-88
2023/11/10 09:45:54;;;;;;;8.10;6.10;;;;;;;11.76;87.40;98952.02;177696;1259;46225;-87
2023/11/10 09:49:59;;;;;;;11.60;7.40;;;;;;;11.82;86.75;98952.79;178038;1259;45985;-87
2023/11/10 09:54:04;;;;;;;8.10;6.30;;;;;;;11.84;86.35;98948.25;177834;1258;46051;-87
2023/11/10 09:58:09;;;;;;;9.30;5.50;;;;;;;11.79;85.93;98939.89;179294;1261;60180;-87
2023/11/10 10:02:14;;;;;;;12.50;7.40;;;;;;;11.77;86.59;98927.30;178326;1259;45921;-87
2023/11/10 10:06:20;;;;;;;7.20;5.30;;;;;;;11.79;86.64;98926.85;177663;1263;46539;-87
2023/11/10 10:10:25;;;;;;;5.90;5.30;;;;;;;11.80;85.69;98933.44;177705;1262;46285;-87
2023/11/10 10:14:28;;;;;;;8.00;6.00;;;;;;;11.86;86.22;98927.30;177998;1260;45977;-88
2023/11/10 10:18:33;;;;;;;8.20;5.30;;;;;;;11.84;85.77;98923.70;177205;1262;59096;-84
2023/11/10 10:22:46;;;;;;;10.50;5.60;;;;;;;11.86;85.71;98927.46;178291;1259;45872;-87
2023/11/10 10:26:51;;;;;;;7.20;6.10;;;;;;;11.93;86.01;98934.70;177747;1259;46082;-86
2023/11/10 10:30:56;;;;;;;11.20;7.50;;;;;;;12.00;86.23;98929.90;178117;1259;46076;-88
2023/11/10 10:35:00;;;;;;;4.80;4.30;;;;;;;12.08;86.01;98921.95;177445;1259;46606;-87
2023/11/10 10:39:11;;;;;;;5.30;4.90;;;;;;;12.15;85.88;98917.27;177728;1259;58827;-87
2023/11/10 10:43:18;;;;;;;7.50;5.20;;;;;;;12.31;86.08;98914.20;177124;1259;46097;-88
2023/11/10 10:47:22;;;;;;;10.40;5.60;;;;;;;12.43;85.72;98905.09;177647;1259;46133;-88
2023/11/10 10:51:27;;;;;;;9.20;4.60;;;;;;;12.55;85.59;98896.32;177186;1259;46171;-87
2023/11/10 10:55:34;;;;;;;8.50;5.80;;;;;;;12.62;85.38;98892.16;177778;1259;46108;-87
2023/11/10 10:59:38;;;;;;;8.40;5.60;;;;;;;12.67;85.81;98893.20;178178;1263;58554;-87
2023/11/10 11:03:51;;;;;;;7.50;5.70;;;;;;;12.70;85.76;98884.36;177080;1259;46123;-88
2023/11/10 11:08:09;;;;;;;8.60;6.00;;;;;;;12.72;84.63;98873.41;177333;1259;46109;-88
2023/11/10 11:12:42;;;;;;;7.30;5.40;;;;;;;12.85;84.02;98870.54;178248;1261;46181;-88
2023/11/10 11:17:40;;;;;;;15.50;8.50;;;;;;;12.87;83.18;98868.92;177521;1259;46025;-88
2023/11/10 11:21:44;;;;;;;11.10;8.10;;;;;;;12.94;82.65;98858.84;177546;1262;60699;-87
2023/11/10 11:26:01;;;;;;;8.00;6.50;;;;;;;12.99;81.75;98850.11;177663;1259;46124;-87
2023/11/10 11:30:07;;;;;;;10.20;6.20;;;;;;;13.01;80.56;98849.52;177600;1259;45979;-87
2023/11/10 11:34:14;;;;;;;10.20;6.40;;;;;;;13.03;80.84;98844.64;178183;1261;46116;-87
2023/11/10 11:38:32;;;;;;;6.70;5.70;;;;;;;13.05;80.33;98852.07;178266;1259;46162;-87
2023/11/10 11:42:43;;;;;;;6.60;6.00;;;;;;;12.97;79.67;98844.78;177884;1259;59817;-87
2023/11/10 11:46:53;;;;;;;8.60;5.70;;;;;;;12.97;79.71;98835.40;178756;1259;46055;-86
2023/11/10 11:50:57;;;;;;;5.50;4.50;;;;;;;12.97;79.27;98834.17;178024;1260;46189;-87
2023/11/10 11:55:02;;;;;;;6.50;5.70;;;;;;;12.93;79.88;98832.79;178199;1259;46187;-87
2023/11/10 11:59:06;;;;;;;8.40;7.00;;;;;;;12.95;79.70;98834.84;177536;1263;46139;-87
2023/11/10 12:03:09;;;;;;;11.70;8.20;;;;;;;12.93;79.36;98836.16;177232;1264;58232;-87
2023/11/10 12:07:13;;;;;;;32.10;18.80;;;;;;;12.93;78.95;98835.80;177500;1263;46110;-87
2023/11/10 12:11:16;;;;;;;18.20;12.10;;;;;;;12.99;78.77;98834.45;177608;1259;46103;-87
2023/11/10 12:15:20;;;;;;;10.00;8.10;;;;;;;12.94;78.75;98836.02;177971;1260;46076;-87
2023/11/10 12:19:25;;;;;;;7.20;6.50;;;;;;;12.95;77.90;98832.92;177739;1260;46000;-87
2023/11/10 12:23:28;;;;;;;7.90;6.50;;;;;;;12.94;77.64;98832.02;177555;1259;60804;-87
2023/11/10 12:48:41;;;;;;;8.10;6.30;;;;;;;12.55;80.74;98828.52;175860;1284;580088;-82
2023/11/10 12:52:52;;;;;;;25.20;14.60;;;;;;;12.84;79.03;98826.59;177430;1267;219269;-82
2023/11/10 12:56:59;;;;;;;25.60;17.00;;;;;;;12.81;79.66;98826.40;177509;1268;46205;-82
2023/11/10 13:01:06;;;;;;;30.30;17.80;;;;;;;12.74;80.64;98829.67;177523;1267;45993;-83
2023/11/10 13:05:11;;;;;;;32.80;20.40;;;;;;;12.75;81.21;98830.40;177515;1268;45789;-83
2023/11/10 13:09:18;;;;;;;59.00;31.60;;;;;;;12.72;81.75;98825.78;178764;1256;46036;-83
2023/11/10 13:13:22;;;;;;;9.50;8.50;;;;;;;12.60;80.43;98827.25;179225;1256;59455;-83
2023/11/10 13:17:26;;;;;;;9.30;5.90;;;;;;;12.62;80.43;98821.77;178530;1260;49199;-83
2023/11/10 13:21:31;;;;;;;8.70;6.00;;;;;;;12.57;79.77;98822.33;178727;1256;45992;-82
2023/11/10 13:25:35;;;;;;;7.30;6.00;;;;;;;12.58;80.57;98821.85;178875;1255;45859;-82
2023/11/10 13:29:39;;;;;;;10.50;7.50;;;;;;;12.53;81.01;98824.32;179407;1258;45997;-83
2023/11/10 13:33:42;;;;;;;12.60;7.50;;;;;;;12.56;82.11;98822.43;178658;1256;58361;-84
2023/11/10 13:37:46;;;;;;;17.50;11.00;;;;;;;12.60;81.87;98824.12;178509;1256;46116;-82
2023/11/10 13:41:49;;;;;;;14.70;8.80;;;;;;;12.62;82.14;98826.18;179606;1257;44325;-87
2023/11/10 13:45:53;;;;;;;11.20;8.70;;;;;;;12.62;81.96;98825.64;179343;1258;46014;-89
2023/11/10 13:49:56;;;;;;;16.20;9.80;;;;;;;12.61;82.19;98833.62;179256;1257;44783;-88
2023/11/10 13:54:00;;;;;;;15.20;11.70;;;;;;;12.63;82.66;98835.66;178886;1257;58941;-84
2023/11/10 13:58:03;;;;;;;13.40;9.00;;;;;;;12.60;82.88;98832.84;178982;1258;45971;-82
2023/11/10 14:02:08;;;;;;;13.20;7.60;;;;;;;12.62;82.87;98827.61;178855;1260;46013;-89
2023/11/10 14:06:14;;;;;;;10.10;7.80;;;;;;;12.59;82.47;98825.11;178112;1258;45816;-87
2023/11/10 14:10:18;;;;;;;7.20;6.50;;;;;;;12.54;82.38;98821.70;179183;1257;44140;-88
2023/11/10 14:14:21;;;;;;;7.50;6.80;;;;;;;12.57;82.62;98821.61;179420;1260;58230;-87
2023/11/10 14:18:25;;;;;;;14.50;7.70;;;;;;;12.58;82.93;98826.42;179451;1258;43950;-82
2023/11/10 14:22:32;;;;;;;13.00;7.20;;;;;;;12.56;83.75;98835.73;179998;1257;44111;-86
2023/11/10 14:26:36;;;;;;;7.90;6.80;;;;;;;12.52;84.32;98841.89;179495;1258;46012;-84
2023/11/10 14:30:39;;;;;;;31.50;9.10;;;;;;;12.51;83.58;98845.40;180106;1258;46104;-86
2023/11/10 14:34:47;;;;;;;6.90;5.20;;;;;;;12.47;83.48;98847.79;178954;1257;58758;-83
2023/11/10 14:39:26;;;;;;;11.20;5.80;;;;;;;12.44;82.98;98848.41;180146;1257;95255;-62
2023/11/10 14:43:29;;;;;;;7.60;6.30;;;;;;;12.41;83.57;98849.52;178720;1261;45875;-81
2023/11/10 14:47:33;;;;;;;10.80;4.70;;;;;;;12.35;85.93;98856.58;178649;1259;46115;-81
2023/11/10 14:51:45;;;;;;;6.90;4.80;;;;;;;12.31;87.17;98865.39;178768;1259;45967;-82
2023/11/10 14:55:49;;;;;;;6.30;4.30;;;;;;;12.27;88.66;98858.92;177962;1259;58321;-81
2023/11/10 14:59:54;;;;;;;9.10;6.30;;;;;;;12.20;88.89;98858.04;179086;1259;46152;-78
2023/11/10 15:04:02;;;;;;;5.70;4.80;;;;;;;12.15;88.78;98853.80;178322;1258;46620;-79
2023/11/10 15:08:10;;;;;;;6.60;5.20;;;;;;;12.04;88.79;98857.45;178620;1259;44126;-82
2023/11/10 15:12:16;;;;;;;6.60;5.00;;;;;;;11.93;89.00;98864.51;178403;1258;46020;-82
2023/11/10 15:16:20;;;;;;;4.90;4.50;;;;;;;11.85;90.67;98875.73;178856;1261;58886;-81
2023/11/10 15:20:23;;;;;;;8.20;6.80;;;;;;;11.77;90.95;98872.70;178266;1260;46134;-81
2023/11/10 15:24:27;;;;;;;12.20;5.90;;;;;;;11.69;91.62;98879.03;179811;1260;45976;-82
2023/11/10 15:28:32;;;;;;;9.70;5.90;;;;;;;11.62;92.34;98878.77;179763;1259;46255;-80
2023/11/10 15:32:41;;;;;;;10.90;6.30;;;;;;;11.52;93.25;98874.30;178982;1259;44207;-82
2023/11/10 15:36:51;;;;;;;7.50;5.60;;;;;;;11.44;93.42;98877.65;178382;1259;58501;-82
2023/11/10 15:40:57;;;;;;;7.00;5.90;;;;;;;11.37;94.04;98880.55;178384;1260;44217;-81
2023/11/10 15:45:01;;;;;;;8.60;6.20;;;;;;;11.34;94.56;98878.93;177973;1258;46341;-80
2023/11/10 15:49:07;;;;;;;9.00;6.40;;;;;;;11.27;95.13;98881.91;178332;1259;45977;-81
2023/11/10 15:53:12;;;;;;;9.00;7.00;;;;;;;11.18;95.68;98887.89;178733;1259;46038;-82
2023/11/10 15:57:16;;;;;;;7.40;5.20;;;;;;;11.10;96.69;98896.70;178378;1260;57421;-82
2023/11/10 16:01:20;;;;;;;8.10;6.80;;;;;;;11.06;96.74;98896.56;179584;1258;46007;-81
2023/11/10 16:05:25;;;;;;;9.40;6.40;;;;;;;11.06;96.35;98896.43;178084;1261;46105;-83
2023/11/10 16:09:29;;;;;;;8.30;6.90;;;;;;;11.05;95.98;98890.31;178541;1258;46121;-81
2023/11/10 16:13:32;;;;;;;10.90;7.50;;;;;;;11.00;95.48;98893.96;178691;1258;46069;-81
2023/11/10 16:17:36;;;;;;;9.70;8.50;;;;;;;10.99;95.30;98892.98;179402;1258;58275;-83
2023/11/10 16:21:39;;;;;;;8.70;6.70;;;;;;;10.97;95.05;98896.80;178976;1260;46063;-80
2023/11/10 16:25:43;;;;;;;6.40;5.80;;;;;;;10.91;94.49;98896.02;177917;1258;46052;-81
2023/11/10 16:29:49;;;;;;;9.90;7.20;;;;;;;10.83;94.48;98906.25;178939;1260;46108;-82
2023/11/10 16:33:54;;;;;;;6.90;5.30;;;;;;;10.74;94.79;98910.73;178847;1259;45997;-82
2023/11/10 16:37:57;;;;;;;6.80;5.50;;;;;;;10.69;94.82;98912.63;178453;1259;58585;-80
2023/11/10 16:42:01;;;;;;;7.00;4.30;;;;;;;10.67;94.73;98911.02;178108;1258;46026;-82
2023/11/10 16:46:04;;;;;;;6.40;5.00;;;;;;;10.66;94.31;98911.70;179149;1261;45833;-83
2023/11/10 16:50:40;;;;;;;16.80;10.00;;;;;;;10.64;94.03;98912.07;178070;1260;46010;-86
2023/11/10 16:54:44;;;;;;;25.10;14.90;;;;;;;10.62;93.86;98919.41;179633;1256;90507;-58
2023/11/10 16:58:48;;;;;;;18.80;14.50;;;;;;;10.61;93.35;98922.70;180698;1260;58616;-62
2023/11/10 17:02:52;;;;;;;25.70;13.00;;;;;;;10.57;93.91;98922.57;180713;1256;46044;-61
2023/11/10 17:06:58;;;;;;;21.50;13.00;;;;;;;10.44;95.15;98918.39;180505;1260;45957;-60
2023/11/10 17:11:03;;;;;;;16.90;9.90;;;;;;;10.38;96.05;98914.71;180668;1256;44813;-63
2023/11/10 17:15:08;;;;;;;22.70;14.30;;;;;;;10.35;95.95;98917.67;180395;1259;45282;-60
2023/11/10 17:19:14;;;;;;;15.30;11.40;;;;;;;10.37;95.46;98922.30;180532;1256;60041;-63
2023/11/10 17:23:21;;;;;;;16.70;10.90;;;;;;;10.38;95.46;98925.34;180646;1256;43887;-61
2023/11/10 17:27:25;;;;;;;18.50;12.90;;;;;;;10.39;94.92;98930.55;180542;1256;44573;-60
2023/11/10 17:31:33;;;;;;;23.10;15.50;;;;;;;10.40;94.41;98930.67;180609;1258;43699;-61
2023/11/10 17:35:38;;;;;;;27.40;18.70;;;;;;;10.40;93.91;98927.84;180562;1256;43605;-61
2023/11/10 17:39:45;;;;;;;23.60;16.90;;;;;;;10.38;93.88;98924.48;180611;1256;58167;-63
2023/11/10 17:43:48;;;;;;;21.40;13.80;;;;;;;10.35;93.49;98924.42;180629;1256;45224;-60
2023/11/10 17:48:43;;;;;;;17.00;12.00;;;;;;;10.30;93.88;98918.21;180507;1257;44792;-60
2023/11/10 17:58:13;;;;;;;16.00;11.00;;;;;;;9.96;93.46;98922.13;180800;1256;45895;-62
2023/11/10 18:07:41;;;;;;;17.70;12.50;;;;;;;9.64;93.37;98914.02;180670;1256;43554;-61
2023/11/10 18:12:10;;;;;;;14.40;11.80;;;;;;;9.55;93.82;98914.34;180684;1256;44940;-61
2023/11/10 18:16:15;;;;;;;13.50;11.90;;;;;;;9.47;93.86;98917.79;180608;1256;44727;-63
2023/11/10 18:20:19;;;;;;;11.90;9.60;;;;;;;9.40;94.10;98915.44;180331;1256;43662;-63
2023/11/10 18:24:23;;;;;;;15.30;11.70;;;;;;;9.27;97.00;98918.01;180490;1256;58227;-64
2023/11/10 18:28:27;;;;;;;20.60;13.70;;;;;;;9.12;97.83;98925.45;180383;1256;44048;-64
2023/11/10 18:32:31;;;;;;;15.00;11.80;;;;;;;9.13;98.76;98928.00;180503;1256;43591;-63
2023/11/10 18:36:34;;;;;;;9.50;8.20;;;;;;;9.13;99.62;98931.89;180781;1256;45920;-64
2023/11/10 18:40:38;;;;;;;11.30;8.90;;;;;;;9.14;100.00;98929.30;180832;1256;45881;-64
2023/11/10 18:44:44;;;;;;;14.00;9.60;;;;;;;9.23;100.00;98934.65;180249;1256;59461;-65
2023/11/10 18:48:47;;;;;;;12.30;8.80;;;;;;;9.38;100.00;98930.88;180349;1256;45162;-63
2023/11/10 18:52:52;;;;;;;17.60;12.70;;;;;;;9.42;100.00;98933.35;180389;1257;43762;-64
2023/11/10 18:56:56;;;;;;;29.60;20.50;;;;;;;9.38;100.00;98935.52;180357;1256;45977;-63
2023/11/10 19:01:00;;;;;;;37.20;24.80;;;;;;;9.44;100.00;98937.74;180199;1254;93434;-80
2023/11/10 19:05:04;;;;;;;34.30;25.10;;;;;;;9.51;100.00;98942.52;179694;1257;59410;-78
2023/11/10 19:09:08;;;;;;;31.10;21.60;;;;;;;9.58;100.00;98938.63;179705;1257;45970;-78
2023/11/10 19:13:12;;;;;;;27.00;19.20;;;;;;;9.69;100.00;98942.02;178707;1257;46353;-82
2023/11/10 19:17:16;;;;;;;26.40;18.20;;;;;;;9.81;100.00;98940.30;179476;1257;44352;-82
2023/11/10 19:21:20;;;;;;;27.60;19.60;;;;;;;9.87;100.00;98941.82;178259;1261;46212;-80
2023/11/10 19:25:23;;;;;;;34.70;21.70;;;;;;;9.78;100.00;98949.64;179043;1256;59518;-80
2023/11/10 19:29:29;;;;;;;71.40;43.50;;;;;;;9.70;100.00;98950.02;178580;1256;46020;-81